Kirby, Vermont
Current Conditions -  °F | °C
As of 8:55 AM on Monday 24 Nov 2014 (Local Time) from KCDA Reporting Station
Moderate Rain Moderate Rain  
Wind Chill: 45°   Ceiling: 1500
Heat Index: 48°   Visibility: 5mi
Dew Point: 45°   Wind: 6mph
Humidity: 90%   Direction: 150°SSE
Pressure: 29.64"   Gusts: NA
Location:  44.4417°N, 71.859°W
Report Text: KCDA 241355Z AUTO 15005KT 5SM RA SCT008 OVC015 09/07 A2964 RMK AO2 T00880073
Loading
Personal Weather Stations






























Interactive Weather Map New forecast layout! Learn more

10-Day Weather Forecast

Advertisements
Track Severe Weather on mobile